Startpagina
METAR-TAF:

METAR-TAF

Vliegvelden :

Productieplatform

Awg-1, Nederland

breedte: 53-29-30N, lengte: 5-56-30E, hoogte: 33 m

Actueel weer

Dit bericht is 11 minuten geleden gemaakt, om 12:55 UTC
Wind 18 kt uit het oostnoordoosten, variërend tussen het oostnoordoosten en het oostzuidoosten
Temperatuur 16°C
Vochtigheid 72%
Druk 1017 hPa
Zicht 10 km of meer

METAR: EHMA 211255Z AUTO 07018KT 060V120 9999 NSC 16/11 Q1017 W///H///

Tijdstip: 15:06 (13:06 UTC)


TAF: ontbreekt

Waarnemingen en weersverwachtingen van meer dan 4000 vliegvelden (METAR en TAF).

De beschikbare stations zijn de gele en rode punten op de kaart.

Ga met uw muis naar het station om de naam te zien.

Klik dan om waarnemingen en weersverwachtingen te zien.

kaart wijzigen: klik op de groene knoppen met een zwart kruis om in te zoomen, op de groene knop met een streepje om uit te zoomen of op de groene pijlen voor aangrenzende kaarten.


METAR-TAF: